Normaali sää.    Ei varoituksia

Säätiedot lähimmiltä METAR asemilta

   
EFUT - Utti
Päivitetty: 18-02-2018 04:50
Heikkoa lumisadetta, Pilvistä  
Heikkoa lumisadetta, Pilvistä  
   Tuuli: Luode 7.4 km/h
Tuuli: Luode 7.4 km/h
Lämpötila: -11°C
Tuulen hyytävyys: -16°C
Kastepiste: -12°C
Kosteus: 92%
Ilmanpaine: 1022 mb
Pilvisyys: Pilvistä
Näkyvyys: 3 km
Pilvitiedot: Pilvistä 396.2 m
EFUT 180250Z AUTO 32004KT 2600 -SN OVC013 M11/M12 Q1022
EFMI - Mikkeli
Päivitetty: 18-02-2018 04:50
Selkeää  
Selkeää  
   Tuuli: Länsilounas 1.9 km/h
Tuuli: Länsilounas 1.9 km/h
Lämpötila: -17°C
Kastepiste: -19°C
Kosteus: 85%
Ilmanpaine: 1023 mb
Näkyvyys: enemmän kuin 10 km
Pilvitiedot: Selkeää
EFMI 180250Z AUTO 25001KT CAVOK M17/M19 Q1023
EFLP - Lappeenranta
Päivitetty: 18-02-2018 04:50
Selkeää  
Selkeää  
   Tuuli: Pohjoisluode 11.1 km/h
Tuuli: Pohjoisluode 11.1 km/h
Lämpötila: -14°C
Tuulen hyytävyys: -21°C
Kastepiste: -15°C
Kosteus: 92%
Ilmanpaine: 1021 mb
Pilvisyys: Selkeää
Näkyvyys: 9 km
Pilvitiedot: Selkeää
EFLP 180250Z AUTO 34006KT 310V010 9000 SKC M14/M15 Q1021
EFHK - Helsinki/Vantaa
Päivitetty: 18-02-2018 04:50
Enimmäkseen pilvistä  
Enimmäkseen pilvistä  
   Tuuli: Länsiluode 7.4 km/h
Tuuli: Länsiluode 7.4 km/h
Lämpötila: -10°C
Tuulen hyytävyys: -14°C
Kastepiste: -12°C
Kosteus: 85%
Ilmanpaine: 1023 mb
Pilvisyys: Enimmäkseen pilvistä
Näkyvyys: 7 km
Pilvitiedot: Enimmäkseen pilvistä 426.7 m
EFHK 180250Z 30004KT 7000 BKN014 M10/M12 Q1023 TEMPO 8000 BKN015
EFHF - Helsinki/Malmi
Päivitetty: 06-03-2017 17:50
EI Ajankohtaista
Selkeää  
Selkeää  
   Tuuli: Koillinen 11.1 km/h
Tuuli: Koillinen 11.1 km/h
Lämpötila: -2°C
Tuulen hyytävyys: -6°C
Kastepiste: -11°C
Kosteus: 51%
Ilmanpaine: 1021 mb
Näkyvyys: enemmän kuin 10 km
Pilvitiedot: Selkeää
EFHF 061550Z 04006KT 330V100 CAVOK M02/M11 Q1021
ELLX - Luxemburg
Päivitetty: 18-02-2018 04:50
Puolipilvistä  
Puolipilvistä  
   Tuuli: Koillinen 7.4 km/h
Tuuli: Koillinen 7.4 km/h
Lämpötila: -2°C
Tuulen hyytävyys: -5°C
Kastepiste: -3°C
Kosteus: 93%
Ilmanpaine: 1025 mb
Pilvisyys: Puolipilvistä
Näkyvyys: 6 km
Pilvitiedot: Puolipilvistä
ELLX 180250Z 05004KT 6000 NSC M02/M03 Q1025 NOSIG

Alkuperäinen skripti  Saratoga-weather.org Sovitettu myös templatelle  Weerstation Leuven